Aviation Digital Data Service (ADDS)

Output produced by METARs form (0046 UTC 24 May 2022)
found at http://www.aviationweather.gov/metar/data/
 
TAF SKAR 232230Z 2400/2424 00000KT 9999 SCT020 
     BECMG 2410/2411 4000 DZ BR BKN010 
     BECMG 2416/2417 SCT015 
     TEMPO 2419/2420 SCT015TCU 
     TEMPO 2420/2424 TS SCT012CB TX28/2419Z TN18/2411Z
       
TAF SKBQ 232230Z 2400/2424 02010KT 9999 FEW015 
     BECMG 2409/2411 VRB03KT 
     TEMPO 2415/2417 RA SCT015TCU 
     TEMPO 2418/2422 TSRA SCT015CB 
     BECMG 2420/2422 03012KT TX32/2418Z TN26/2409Z
       
TAF SKBO 232230Z 2400/2424 VRB02KT 8000 DZ SCT015 BKN070 
     PROB40 
     TEMPO 2409/2412 5000 BR SCT008 
     BECMG 2415/2417 15011KT 
     TEMPO 2419/2422 DZ SCT015CB BKN080 TX22/2418Z TN09/2409Z
       
TAF SKBG 232230Z 2400/2424 32006KT 8000 DZ SCT015TCU 
     BECMG 2404/2406 9999 NSW SCT015 
     TEMPO 2409/2412 5000 BCFG 
     BECMG 2415/2417 32006KT TX29/2418Z TN18/2410Z
       
TAF SKCL 232230Z 2400/2424 01006KT 9999 SCT020 
     BECMG 2410/2411 5000 DZ BR 
     BECMG 2414/2416 9999 NSW 
     BECMG 2418/2419 SCT020TCU TX31/2420Z TN20/2411Z
       
TAF SKCG 232230Z 2400/2424 35012KT 8000 TSRA SCT015CB BKN070 
     BECMG 2401/2403 9999 NSW SCT015 
     BECMG 2402/2404 03005KT 
     BECMG 2415/2417 35012KT 
     TEMPO 2419/2422 TS SCT015CB TX34/2418Z TN25/2410Z
       
TAF SKCC 232230Z 2400/2424 16014KT 8000 DZ SCT015 BKN070 
     BECMG 2402/2404 9999 NSW 
     TEMPO 2409/2412 3000 BR SCT008 
     BECMG 2415/2417 35012KT TX33/2418Z TN22/2410Z
       
TAF SKLT 232230Z 2400/2424 VRB02KT 9999 FEW010 
     TEMPO 2406/2409 DZ SCT015 BKN070 
     BECMG 2413/2415 25008KT TX33/2419Z TN22/2410Z
       
TAF SKRG 232230Z 2400/2424 VRB02KT 9999 SCT015 
     TEMPO 2403/2407 5000 TSRA BKN010CB 
     TEMPO 2409/2412 4000 DZ BCFG BKN006 
     BECMG 2413/2415 10010KT 
     TEMPO 2419/2422 SCT015CB TX22/2419Z TN13/2411Z
       
TAF SKPE 232230Z 2400/2424 13004KT 9999 SCT015 BKN080 
     BECMG 2410/2411 3000 DZ BR BKN010 
     BECMG 24152416 9999 NSW SCT017 
     BECMG 2418/2419 SCT017TCU 
     TEMPO 2420/2424 TS SCT015CB TX28/2419Z TN18/2411Z
       
TAF SKSP 232230Z 2400/2424 09012KT 9999 FEW015 TX32/2418Z TN26/2410Z